Time;durP1;ratioP1;P1;durP2;ratioP2;P2;SDS_P1;SDS_P2;PMS_P1;PMS_P2;Temp;Humidity;BMP_temperature;BMP_pressure;BME280_temperature;BME280_humidity;BME280_pressure;Samples;Min_cycle;Max_cycle;Signal;HPM_P1;HPM_P2
2022/04/07 00:01:45;;;;;;;10.82;4.25;;;;;;;;;;4988908;28;95393;-77
2022/04/07 00:04:12;;;;;;;12.35;4.13;;;;;;;;;;4987643;28;95637;-77
2022/04/07 00:06:38;;;;;;;11.15;3.38;;;;;;;;;;4988429;28;97683;-76
2022/04/07 00:09:04;;;;;;;13.50;3.45;;;;;;;;;;4989507;28;95450;-73
2022/04/07 00:11:31;;;;;;;18.92;4.63;;;;;;;;;;4988385;28;97321;-76
2022/04/07 00:13:57;;;;;;;8.75;3.33;;;;;;;;;;4988604;28;96143;-77
2022/04/07 00:16:23;;;;;;;10.43;3.30;;;;;;;;;;4978056;28;97585;-76
2022/04/07 00:18:50;;;;;;;11.02;2.97;;;;;;;;;;4968500;28;97314;-74
2022/04/07 00:21:35;;;;;;;16.50;3.20;;;;;;;;;;4968683;28;95579;-76
2022/04/07 00:24:05;;;;;;;10.77;2.97;;;;;;;;;;4968710;28;96849;-77
2022/04/07 00:26:32;;;;;;;18.55;2.95;;;;;;;;;;4978700;28;97362;-77
2022/04/07 00:28:58;;;;;;;14.00;3.13;;;;;;;;;;4981596;28;96206;-73
2022/04/07 00:31:25;;;;;;;14.75;2.80;;;;;;;;;;4969864;28;96473;-73
2022/04/07 00:33:52;;;;;;;10.85;2.85;;;;;;;;;;4968756;28;95615;-74
2022/04/07 00:36:18;;;;;;;10.85;2.70;;;;;;;;;;4967433;28;97022;-75
2022/04/07 00:38:44;;;;;;;11.90;3.10;;;;;;;;;;4971357;28;97402;-75
2022/04/07 00:41:11;;;;;;;13.63;2.60;;;;;;;;;;4971800;28;95725;-74
2022/04/07 00:43:37;;;;;;;13.07;3.08;;;;;;;;;;4971923;28;97228;-73
2022/04/07 00:46:04;;;;;;;12.90;3.00;;;;;;;;;;4971480;28;97360;-75
2022/04/07 00:48:35;;;;;;;15.88;3.30;;;;;;;;;;4971503;28;95839;-75
2022/04/07 00:51:02;;;;;;;19.02;3.30;;;;;;;;;;4972960;28;96793;-74
2022/04/07 00:53:28;;;;;;;14.55;3.08;;;;;;;;;;4980771;28;97571;-73
2022/04/07 00:55:59;;;;;;;15.95;3.75;;;;;;;;;;4988456;28;97004;-76
2022/04/07 00:58:27;;;;;;;13.50;3.13;;;;;;;;;;4982443;28;97129;-75
2022/04/07 01:00:53;;;;;;;13.77;3.20;;;;;;;;;;4982765;28;95782;-75
2022/04/07 01:03:19;;;;;;;13.73;3.67;;;;;;;;;;4976183;28;96783;-76
2022/04/07 01:05:45;;;;;;;14.48;3.25;;;;;;;;;;4974631;28;97366;-74
2022/04/07 01:08:14;;;;;;;10.20;3.35;;;;;;;;;;4976938;28;95476;-73
2022/04/07 01:10:42;;;;;;;16.15;3.80;;;;;;;;;;4980137;28;96797;-76
2022/04/07 01:13:08;;;;;;;10.60;3.53;;;;;;;;;;4975038;28;97067;-76
2022/04/07 01:15:37;;;;;;;12.90;3.13;;;;;;;;;;4972287;28;96125;-71
2022/04/07 01:18:04;;;;;;;13.23;3.90;;;;;;;;;;4976757;28;97250;-75
2022/04/07 01:20:31;;;;;;;14.50;3.75;;;;;;;;;;4974964;28;96095;-74
2022/04/07 01:22:58;;;;;;;13.38;3.40;;;;;;;;;;4968477;28;96974;-74
2022/04/07 01:25:26;;;;;;;17.67;3.75;;;;;;;;;;4967056;28;97340;-76
2022/04/07 01:27:53;;;;;;;13.07;3.47;;;;;;;;;;4972040;28;95248;-76
2022/04/07 01:30:19;;;;;;;15.07;3.92;;;;;;;;;;4971978;28;96396;-77
2022/04/07 01:32:49;;;;;;;11.85;4.25;;;;;;;;;;4979564;28;97683;-76
2022/04/07 01:35:16;;;;;;;15.95;4.68;;;;;;;;;;4963309;28;97347;-76
2022/04/07 01:37:44;;;;;;;11.68;4.93;;;;;;;;;;4968922;28;96454;-76
2022/04/07 01:40:13;;;;;;;17.52;5.00;;;;;;;;;;4975807;28;95835;-78
2022/04/07 01:42:39;;;;;;;14.60;5.00;;;;;;;;;;4983932;28;96822;-77
2022/04/07 01:45:06;;;;;;;17.48;5.25;;;;;;;;;;4975382;28;97344;-77
2022/04/07 01:47:34;;;;;;;19.92;5.95;;;;;;;;;;4983086;28;96030;-77
2022/04/07 01:50:04;;;;;;;19.10;6.63;;;;;;;;;;4963475;28;97204;-77
2022/04/07 01:52:30;;;;;;;22.83;6.85;;;;;;;;;;4972310;28;97444;-77
2022/04/07 01:54:58;;;;;;;16.55;7.10;;;;;;;;;;4977976;28;95512;-76
2022/04/07 01:57:25;;;;;;;20.65;6.30;;;;;;;;;;4968196;28;96585;-75
2022/04/07 01:59:51;;;;;;;20.30;5.82;;;;;;;;;;4993603;28;97061;-74
2022/04/07 02:02:18;;;;;;;22.48;5.68;;;;;;;;;;4984304;28;96809;-75
2022/04/07 02:04:57;;;;;;;18.40;5.72;;;;;;;;;;4981248;28;97799;-73
2022/04/07 02:07:28;;;;;;;20.88;5.07;;;;;;;;;;4972978;28;95703;-73
2022/04/07 02:09:55;;;;;;;20.23;4.70;;;;;;;;;;4978045;28;95905;-73
2022/04/07 02:12:23;;;;;;;26.42;5.70;;;;;;;;;;4984661;28;97919;-74
2022/04/07 02:14:50;;;;;;;20.13;4.82;;;;;;;;;;4989868;28;95754;-75
2022/04/07 02:17:20;;;;;;;19.85;5.00;;;;;;;;;;4972641;28;97603;-74
2022/04/07 02:19:50;;;;;;;21.52;4.30;;;;;;;;;;4976729;28;96329;-75
2022/04/07 02:22:17;;;;;;;21.30;4.45;;;;;;;;;;4979249;28;96874;-79
2022/04/07 02:24:43;;;;;;;14.85;4.03;;;;;;;;;;4989021;28;97809;-75
2022/04/07 02:27:10;;;;;;;14.77;3.75;;;;;;;;;;4988299;28;96101;-76
2022/04/07 02:29:36;;;;;;;21.58;3.80;;;;;;;;;;4973675;28;97214;-73
2022/04/07 02:32:03;;;;;;;15.75;3.53;;;;;;;;;;4983539;28;97386;-76
2022/04/07 02:34:30;;;;;;;21.70;3.78;;;;;;;;;;4986147;28;95849;-75
2022/04/07 02:36:56;;;;;;;23.38;3.60;;;;;;;;;;4976730;28;96825;-74
2022/04/07 02:39:22;;;;;;;16.42;3.78;;;;;;;;;;4986092;28;97299;-75
2022/04/07 02:41:49;;;;;;;17.92;3.13;;;;;;;;;;4976898;28;95630;-77
2022/04/07 02:44:17;;;;;;;16.13;3.38;;;;;;;;;;4988357;28;97665;-76
2022/04/07 02:46:43;;;;;;;18.88;3.92;;;;;;;;;;4978791;28;96299;-72
2022/04/07 02:49:09;;;;;;;22.20;4.68;;;;;;;;;;4984596;28;96726;-77
2022/04/07 02:51:36;;;;;;;17.50;3.83;;;;;;;;;;4972433;28;97291;-74
2022/04/07 02:54:02;;;;;;;18.75;4.40;;;;;;;;;;4985963;28;96195;-75
2022/04/07 02:56:28;;;;;;;23.98;4.85;;;;;;;;;;4980452;28;96677;-74
2022/04/07 02:58:55;;;;;;;24.27;4.80;;;;;;;;;;4981954;28;98105;-74
2022/04/07 03:01:27;;;;;;;17.83;4.35;;;;;;;;;;4972358;28;95427;-73
2022/04/07 03:03:55;;;;;;;21.42;4.38;;;;;;;;;;4992014;28;97223;-74
2022/04/07 03:06:22;;;;;;;20.30;4.95;;;;;;;;;;4980286;28;95451;-74
2022/04/07 03:08:50;;;;;;;22.42;3.75;;;;;;;;;;4974179;28;96004;-74
2022/04/07 03:11:16;;;;;;;32.33;5.35;;;;;;;;;;4973253;28;97321;-74
2022/04/07 03:13:43;;;;;;;21.52;4.38;;;;;;;;;;4974045;28;96346;-75
2022/04/07 03:16:09;;;;;;;34.53;4.80;;;;;;;;;;4984788;28;96756;-76
2022/04/07 03:18:36;;;;;;;22.90;4.10;;;;;;;;;;4979035;28;97332;-72
2022/04/07 03:21:02;;;;;;;15.93;4.05;;;;;;;;;;4982677;28;95809;-74
2022/04/07 03:23:28;;;;;;;20.83;4.43;;;;;;;;;;4972574;28;96719;-76
2022/04/07 03:25:55;;;;;;;19.40;3.78;;;;;;;;;;4979591;28;97334;-75
2022/04/07 03:28:21;;;;;;;27.58;4.28;;;;;;;;;;4980327;28;96829;-75
2022/04/07 03:30:47;;;;;;;23.38;4.38;;;;;;;;;;4981044;28;97335;-75
2022/04/07 03:33:14;;;;;;;21.02;4.18;;;;;;;;;;4988714;28;96066;-76
2022/04/07 03:35:42;;;;;;;27.88;5.40;;;;;;;;;;4972650;28;96965;-76
2022/04/07 03:38:08;;;;;;;23.13;4.10;;;;;;;;;;4982457;28;97298;-77
2022/04/07 03:40:35;;;;;;;17.83;4.22;;;;;;;;;;4979071;28;95434;-76
2022/04/07 03:43:01;;;;;;;20.35;4.30;;;;;;;;;;4975263;28;96884;-77
2022/04/07 03:45:28;;;;;;;19.95;3.80;;;;;;;;;;4973224;28;96374;-77
2022/04/07 03:47:54;;;;;;;21.63;4.22;;;;;;;;;;4987496;28;95859;-74
2022/04/07 03:50:22;;;;;;;21.17;4.45;;;;;;;;;;4976463;28;97705;-77
2022/04/07 03:52:48;;;;;;;13.60;3.70;;;;;;;;;;4977570;28;96070;-78
2022/04/07 03:55:14;;;;;;;18.83;4.10;;;;;;;;;;4975685;28;96866;-78
2022/04/07 03:57:40;;;;;;;26.17;5.22;;;;;;;;;;4985051;28;97341;-78
2022/04/07 04:00:07;;;;;;;16.33;4.82;;;;;;;;;;4968595;28;95417;-77
2022/04/07 04:02:33;;;;;;;20.27;4.32;;;;;;;;;;4973764;28;96788;-77
2022/04/07 04:05:00;;;;;;;18.90;4.90;;;;;;;;;;4977913;28;96618;-76
2022/04/07 04:07:27;;;;;;;22.92;4.28;;;;;;;;;;4969359;28;95450;-77
2022/04/07 04:09:53;;;;;;;20.63;4.32;;;;;;;;;;4975761;28;95498;-77
2022/04/07 04:12:26;;;;;;;23.33;4.70;;;;;;;;;;4973384;28;96391;-76
2022/04/07 04:14:52;;;;;;;24.33;4.80;;;;;;;;;;4973622;28;96888;-78
2022/04/07 04:17:18;;;;;;;21.80;5.15;;;;;;;;;;4989597;28;97256;-75
2022/04/07 04:19:44;;;;;;;15.93;4.35;;;;;;;;;;4975748;28;95844;-76
2022/04/07 04:22:11;;;;;;;19.92;4.15;;;;;;;;;;4985275;28;96725;-75
2022/04/07 04:24:37;;;;;;;25.48;3.90;;;;;;;;;;4978968;28;97469;-76
2022/04/07 04:27:05;;;;;;;24.67;4.78;;;;;;;;;;4977219;28;95287;-78
2022/04/07 04:29:31;;;;;;;19.67;4.15;;;;;;;;;;4975037;28;97088;-75
2022/04/07 04:31:57;;;;;;;21.63;3.70;;;;;;;;;;4972467;28;95925;-77
2022/04/07 04:34:24;;;;;;;19.25;3.65;;;;;;;;;;4980527;28;96863;-76
2022/04/07 04:36:50;;;;;;;14.02;3.30;;;;;;;;;;4989531;28;97272;-75
2022/04/07 04:39:16;;;;;;;13.30;3.15;;;;;;;;;;4970749;28;95374;-76
2022/04/07 04:41:42;;;;;;;13.02;3.50;;;;;;;;;;4979426;28;96404;-76
2022/04/07 10:14:34;;;;;;;8.23;1.70;;;;;;;;;;5052290;27;1289794;-79
2022/04/07 10:17:00;;;;;;;10.43;1.92;;;;;;;;;;5082986;27;96851;-78
2022/04/07 10:19:45;;;;;;;13.60;2.72;;;;;;;;;;5085675;27;95456;-81
2022/04/07 10:22:30;;;;;;;8.82;1.90;;;;;;;;;;5077657;27;96922;-80
2022/04/07 10:25:02;;;;;;;7.85;1.88;;;;;;;;;;5087084;27;97439;-82
2022/04/07 10:27:33;;;;;;;10.93;2.50;;;;;;;;;;5085443;27;95775;-83
2022/04/07 10:30:05;;;;;;;10.00;2.13;;;;;;;;;;5086011;27;96404;-81
2022/04/07 10:32:32;;;;;;;;;;;;;;;;;;5086541;27;97481;-82
2022/04/07 10:34:58;;;;;;;12.25;2.17;;;;;;;;;;5089153;27;117941;-75
2022/04/07 10:37:28;;;;;;;12.02;2.78;;;;;;;;;;5085940;27;97884;-80
2022/04/07 10:39:55;;;;;;;13.65;2.60;;;;;;;;;;5086243;27;95608;-77
2022/04/07 10:42:50;;;;;;;10.43;2.28;;;;;;;;;;5086360;27;96025;-75
2022/04/07 10:45:29;;;;;;;11.80;2.50;;;;;;;;;;5076069;27;97278;-75
2022/04/07 10:48:14;;;;;;;14.05;2.75;;;;;;;;;;5078121;27;95413;-76
2022/04/07 10:50:49;;;;;;;19.45;2.80;;;;;;;;;;5086783;27;96710;-76
2022/04/07 10:53:24;;;;;;;14.38;2.60;;;;;;;;;;5086515;27;97284;-75
2022/04/07 10:55:56;;;;;;;18.42;2.60;;;;;;;;;;5086972;27;95744;-77
2022/04/07 10:58:24;;;;;;;;;;;;;;;;;;5089560;27;96852;-76
2022/04/07 11:00:51;;;;;;;14.57;3.17;;;;;;;;;;5085576;27;117538;-75
2022/04/07 11:03:18;;;;;;;16.50;2.88;;;;;;;;;;5086147;27;96065;-76
2022/04/07 11:05:52;;;;;;;18.55;2.80;;;;;;;;;;5086389;27;97346;-76
2022/04/07 11:08:22;;;;;;;14.68;2.40;;;;;;;;;;5086048;27;95344;-76
2022/04/07 11:10:48;;;;;;;18.52;2.85;;;;;;;;;;5086444;27;95744;-74
2022/04/07 11:13:15;;;;;;;20.02;2.83;;;;;;;;;;5085285;27;97302;-76
2022/04/07 11:15:41;;;;;;;17.38;2.80;;;;;;;;;;5084328;27;96101;-75
2022/04/07 11:18:26;;;;;;;16.00;3.35;;;;;;;;;;5085345;27;96945;-75
2022/04/07 11:21:09;;;;;;;15.10;2.55;;;;;;;;;;5088984;27;97373;-75
2022/04/07 11:23:39;;;;;;;14.70;3.08;;;;;;;;;;5085836;27;97131;-76
2022/04/07 11:26:09;;;;;;;17.48;3.15;;;;;;;;;;5070836;27;97301;-74
2022/04/07 11:28:37;;;;;;;13.68;2.90;;;;;;;;;;5071166;27;96105;-75
2022/04/07 11:31:04;;;;;;;19.80;3.00;;;;;;;;;;5070838;27;97088;-74
2022/04/07 11:33:38;;;;;;;15.73;2.97;;;;;;;;;;5070879;27;97210;-75
2022/04/07 11:36:07;;;;;;;15.27;2.75;;;;;;;;;;5071107;27;95515;-74
2022/04/07 11:38:37;;;;;;;17.45;3.30;;;;;;;;;;5070890;27;95745;-75
2022/04/07 11:41:05;;;;;;;16.35;3.50;;;;;;;;;;5056620;27;96382;-75
2022/04/07 11:43:32;;;;;;;23.20;3.33;;;;;;;;;;5064432;27;95443;-73
2022/04/07 11:45:59;;;;;;;12.82;2.80;;;;;;;;;;5069562;27;97245;-74
2022/04/07 11:48:45;;;;;;;17.33;3.00;;;;;;;;;;5066415;27;95371;-75
2022/04/07 11:51:17;;;;;;;20.58;2.95;;;;;;;;;;5064964;27;96789;-75
2022/04/07 11:53:53;;;;;;;11.80;2.47;;;;;;;;;;5071523;27;97356;-77
2022/04/07 11:56:20;;;;;;;17.30;3.17;;;;;;;;;;5070496;27;95374;-75
2022/04/07 11:58:53;;;;;;;15.57;2.60;;;;;;;;;;5072476;27;96843;-77
2022/04/07 12:01:19;;;;;;;18.40;3.40;;;;;;;;;;5062225;27;97145;-76
2022/04/07 12:03:49;;;;;;;13.85;2.53;;;;;;;;;;5060844;27;96836;-75
2022/04/07 12:06:16;;;;;;;21.92;2.90;;;;;;;;;;5069028;27;96850;-76
2022/04/07 12:08:42;;;;;;;17.58;2.70;;;;;;;;;;5070967;27;95782;-76
2022/04/07 12:11:09;;;;;;;17.17;2.78;;;;;;;;;;5068664;27;96857;-75
2022/04/07 12:13:35;;;;;;;14.38;2.38;;;;;;;;;;5054785;27;97547;-75
2022/04/07 12:16:02;;;;;;;15.20;2.78;;;;;;;;;;5065439;27;95738;-77
2022/04/07 12:18:29;;;;;;;15.55;2.78;;;;;;;;;;5051284;27;96966;-76
2022/04/07 12:21:00;;;;;;;19.77;2.85;;;;;;;;;;5070498;27;97376;-77
2022/04/07 12:23:27;;;;;;;18.15;3.22;;;;;;;;;;5070939;27;95437;-78
2022/04/07 12:25:58;;;;;;;16.13;2.60;;;;;;;;;;5071798;27;96728;-76
2022/04/07 12:28:31;;;;;;;15.38;2.72;;;;;;;;;;5073928;27;95628;-76
2022/04/07 12:30:57;;;;;;;15.88;2.70;;;;;;;;;;5070009;27;96867;-77
2022/04/07 12:33:36;;;;;;;16.20;3.13;;;;;;;;;;5070389;27;97386;-78
2022/04/07 12:36:02;;;;;;;15.65;2.67;;;;;;;;;;5065693;27;96046;-77
2022/04/07 12:38:28;;;;;;;11.60;1.77;;;;;;;;;;5070459;27;96705;-77
2022/04/07 12:40:55;;;;;;;22.50;2.60;;;;;;;;;;5070740;27;97457;-76
2022/04/07 12:43:41;;;;;;;12.95;2.40;;;;;;;;;;5070826;27;95720;-77
2022/04/07 12:46:08;;;;;;;14.23;2.85;;;;;;;;;;5067902;27;97193;-77
2022/04/07 12:48:35;;;;;;;9.38;2.15;;;;;;;;;;5059244;27;97373;-75
2022/04/07 12:51:21;;;;;;;17.90;3.03;;;;;;;;;;5050373;27;96625;-75
2022/04/07 12:53:47;;;;;;;21.23;2.80;;;;;;;;;;5061811;27;97441;-76
2022/04/07 12:56:17;;;;;;;14.40;2.42;;;;;;;;;;5069512;27;95912;-77
2022/04/07 12:58:44;;;;;;;13.77;2.58;;;;;;;;;;5069189;27;96724;-74
2022/04/07 13:01:10;;;;;;;10.68;2.72;;;;;;;;;;5048352;27;95605;-75
2022/04/07 13:03:57;;;;;;;12.77;2.03;;;;;;;;;;5055594;27;95870;-74
2022/04/07 13:06:24;;;;;;;14.32;2.97;;;;;;;;;;5069253;27;97936;-74
2022/04/07 13:08:50;;;;;;;11.98;2.53;;;;;;;;;;5067951;27;97304;-75
2022/04/07 13:11:36;;;;;;;16.73;2.85;;;;;;;;;;5073129;27;95699;-75
2022/04/07 13:14:03;;;;;;;23.75;2.70;;;;;;;;;;5069503;27;97380;-74
2022/04/07 13:16:30;;;;;;;13.50;2.67;;;;;;;;;;5069573;27;95755;-76
2022/04/07 13:18:57;;;;;;;9.93;2.20;;;;;;;;;;5069621;27;96767;-76
2022/04/07 13:21:24;;;;;;;14.98;2.45;;;;;;;;;;5069830;27;97280;-74
2022/04/07 13:23:50;;;;;;;11.88;2.30;;;;;;;;;;5070290;27;95957;-78
2022/04/07 13:26:17;;;;;;;10.77;2.75;;;;;;;;;;5069474;27;97432;-77
2022/04/07 19:08:13;;;;;;;7.35;2.13;;;;;;;;;;5005570;27;1298698;-74
2022/04/07 19:10:40;;;;;;;11.88;2.67;;;;;;;;;;5024692;28;97351;-76
2022/04/07 19:13:07;;;;;;;4.93;1.85;;;;;;;;;;5022835;28;95253;-76
2022/04/07 19:15:34;;;;;;;7.65;2.63;;;;;;;;;;5021395;28;95860;-76
2022/04/07 19:18:00;;;;;;;8.45;2.42;;;;;;;;;;5022806;28;99818;-75
2022/04/07 19:20:26;;;;;;;13.48;2.30;;;;;;;;;;5024669;28;95769;-76
2022/04/07 19:22:52;;;;;;;6.85;2.30;;;;;;;;;;5024761;28;95572;-73
2022/04/07 19:25:19;;;;;;;9.23;2.10;;;;;;;;;;5023391;28;97357;-74
2022/04/07 19:27:45;;;;;;;11.90;2.75;;;;;;;;;;5025911;28;95786;-74
2022/04/07 19:30:14;;;;;;;10.32;2.30;;;;;;;;;;5023440;28;97675;-74
2022/04/07 19:32:40;;;;;;;9.45;2.65;;;;;;;;;;5024289;28;95479;-77
2022/04/07 19:35:07;;;;;;;14.30;2.88;;;;;;;;;;5023663;28;95624;-76
2022/04/07 19:37:33;;;;;;;11.45;3.13;;;;;;;;;;5024294;28;97395;-73
2022/04/07 19:39:59;;;;;;;11.60;2.70;;;;;;;;;;5025108;28;95378;-74
2022/04/07 19:42:26;;;;;;;16.52;2.92;;;;;;;;;;5024321;28;96825;-74
2022/04/07 19:44:54;;;;;;;18.58;2.50;;;;;;;;;;5024569;28;97461;-74
2022/04/07 19:47:21;;;;;;;12.57;2.50;;;;;;;;;;5024061;27;95631;-74
2022/04/07 19:49:47;;;;;;;11.93;2.38;;;;;;;;;;5028036;28;96916;-76
2022/04/07 19:52:15;;;;;;;17.63;2.80;;;;;;;;;;5005463;28;95598;-75
2022/04/07 19:54:41;;;;;;;10.68;2.30;;;;;;;;;;5023997;28;96981;-75
2022/04/07 19:57:08;;;;;;;15.70;2.72;;;;;;;;;;5024344;28;97343;-74
2022/04/07 19:59:34;;;;;;;13.63;2.60;;;;;;;;;;5021151;28;96003;-75
2022/04/07 20:02:01;;;;;;;19.00;2.90;;;;;;;;;;5024446;28;97152;-74
2022/04/07 20:04:27;;;;;;;16.42;2.63;;;;;;;;;;5023740;28;98130;-74
2022/04/07 20:06:53;;;;;;;13.30;2.40;;;;;;;;;;5023611;27;95450;-74
2022/04/07 20:09:20;;;;;;;14.43;2.45;;;;;;;;;;5024503;28;96841;-74
2022/04/07 20:11:51;;;;;;;18.75;3.42;;;;;;;;;;5027461;27;97141;-75
2022/04/07 20:14:19;;;;;;;14.10;2.40;;;;;;;;;;5023478;27;95718;-74
2022/04/07 20:16:46;;;;;;;19.33;3.17;;;;;;;;;;5024573;28;97333;-75
2022/04/07 20:19:14;;;;;;;13.00;2.13;;;;;;;;;;5012468;27;96988;-75
2022/04/07 20:21:44;;;;;;;12.48;2.45;;;;;;;;;;5011090;28;96689;-75
2022/04/07 20:24:11;;;;;;;20.40;3.05;;;;;;;;;;5009888;28;97848;-74
2022/04/07 20:26:43;;;;;;;14.88;2.75;;;;;;;;;;5010494;28;95301;-76
2022/04/07 20:29:13;;;;;;;13.63;2.63;;;;;;;;;;5010818;28;96758;-76
2022/04/07 20:31:41;;;;;;;25.25;4.20;;;;;;;;;;5009404;28;97391;-75
2022/04/07 20:34:07;;;;;;;23.13;3.58;;;;;;;;;;5013323;28;95568;-74
2022/04/07 20:36:41;;;;;;;15.85;3.10;;;;;;;;;;5010687;28;97632;-76
2022/04/07 20:39:07;;;;;;;18.30;3.17;;;;;;;;;;5009666;28;95294;-75
2022/04/07 20:41:35;;;;;;;18.05;2.85;;;;;;;;;;5009075;28;96762;-75
2022/04/07 20:44:02;;;;;;;14.43;2.53;;;;;;;;;;4995727;28;97296;-76
2022/04/07 20:46:29;;;;;;;21.63;3.00;;;;;;;;;;5010097;28;95310;-75
2022/04/07 20:48:57;;;;;;;15.80;3.30;;;;;;;;;;5009276;28;96757;-75
2022/04/07 20:51:24;;;;;;;12.30;2.47;;;;;;;;;;5010187;28;96175;-75
2022/04/07 20:53:51;;;;;;;15.02;2.38;;;;;;;;;;5010117;28;95496;-77
2022/04/07 20:56:21;;;;;;;22.95;3.05;;;;;;;;;;5012547;28;97310;-77
2022/04/07 20:58:48;;;;;;;14.48;2.45;;;;;;;;;;5010436;28;96370;-77
2022/04/07 21:01:15;;;;;;;18.42;2.50;;;;;;;;;;5009219;28;96969;-75
2022/04/07 21:03:41;;;;;;;14.45;2.75;;;;;;;;;;5010331;28;97395;-76
2022/04/07 21:06:08;;;;;;;15.57;2.67;;;;;;;;;;5009850;28;95852;-77
2022/04/07 21:08:34;;;;;;;15.88;2.17;;;;;;;;;;5010045;28;96684;-76
2022/04/07 21:11:07;;;;;;;12.38;2.20;;;;;;;;;;5009073;28;97798;-76
2022/04/07 21:13:36;;;;;;;12.25;2.30;;;;;;;;;;5010249;28;95329;-77
2022/04/07 21:16:03;;;;;;;20.35;2.55;;;;;;;;;;5009821;28;96781;-76
2022/04/07 21:18:30;;;;;;;21.60;3.03;;;;;;;;;;5012585;28;95319;-75
2022/04/07 21:20:57;;;;;;;16.15;2.67;;;;;;;;;;5008471;28;96864;-75
2022/04/07 21:23:23;;;;;;;15.57;2.53;;;;;;;;;;5008815;28;98267;-75
2022/04/07 21:25:50;;;;;;;13.18;2.30;;;;;;;;;;5010145;28;95830;-75
2022/04/07 21:28:16;;;;;;;11.80;2.05;;;;;;;;;;5009499;28;96547;-76
2022/04/07 21:30:43;;;;;;;21.73;2.58;;;;;;;;;;5008860;28;97307;-76
2022/04/07 21:33:10;;;;;;;18.08;3.67;;;;;;;;;;5010246;28;95951;-76
2022/04/07 21:35:36;;;;;;;17.67;2.95;;;;;;;;;;5010725;28;96838;-77
2022/04/07 21:38:02;;;;;;;17.27;2.58;;;;;;;;;;5012759;28;97434;-76
2022/04/07 21:40:29;;;;;;;14.23;2.58;;;;;;;;;;5010577;28;96743;-76
2022/04/07 21:42:57;;;;;;;17.35;2.45;;;;;;;;;;5010563;28;97134;-75
2022/04/07 21:45:24;;;;;;;19.20;2.38;;;;;;;;;;5009648;28;95400;-77
2022/04/07 21:47:50;;;;;;;16.65;2.65;;;;;;;;;;5009379;28;95866;-76
2022/04/07 21:50:16;;;;;;;17.10;2.83;;;;;;;;;;5005545;28;97403;-76
2022/04/07 21:52:45;;;;;;;13.10;2.50;;;;;;;;;;5010344;28;95703;-76
2022/04/07 21:55:13;;;;;;;16.50;2.72;;;;;;;;;;5010043;28;97122;-75
2022/04/07 21:57:39;;;;;;;17.95;2.70;;;;;;;;;;5009114;28;97551;-75
2022/04/07 22:00:06;;;;;;;12.90;2.15;;;;;;;;;;5012631;28;95457;-75
2022/04/07 22:02:33;;;;;;;14.63;2.70;;;;;;;;;;5009901;28;96251;-75
2022/04/07 22:05:00;;;;;;;16.98;2.78;;;;;;;;;;5007338;28;95445;-76
2022/04/07 22:07:27;;;;;;;18.20;2.72;;;;;;;;;;5009767;28;95776;-75
2022/04/07 22:09:53;;;;;;;12.38;2.47;;;;;;;;;;5010051;28;97287;-75
2022/04/07 22:12:19;;;;;;;18.48;2.55;;;;;;;;;;5009725;28;95750;-75
2022/04/07 22:14:46;;;;;;;18.58;2.88;;;;;;;;;;5010090;28;96621;-76
2022/04/07 22:17:12;;;;;;;15.20;2.45;;;;;;;;;;5009429;28;96092;-76
2022/04/07 22:19:38;;;;;;;20.52;3.65;;;;;;;;;;5008772;28;95832;-74
2022/04/07 22:22:04;;;;;;;12.95;2.47;;;;;;;;;;5012842;28;96553;-76
2022/04/07 22:24:31;;;;;;;13.18;2.47;;;;;;;;;;4997352;28;95953;-76
2022/04/07 22:26:58;;;;;;;16.55;2.58;;;;;;;;;;5009376;28;96528;-79
2022/04/07 22:29:30;;;;;;;16.83;2.72;;;;;;;;;;5008467;28;98994;-76
2022/04/07 22:31:57;;;;;;;11.70;2.72;;;;;;;;;;5009955;28;95391;-76
2022/04/07 22:34:23;;;;;;;21.23;2.75;;;;;;;;;;5009376;28;96798;-76
2022/04/07 22:36:49;;;;;;;14.77;2.63;;;;;;;;;;5009697;28;97403;-76
2022/04/07 22:39:16;;;;;;;14.48;2.58;;;;;;;;;;5009155;28;95605;-76
2022/04/07 22:41:42;;;;;;;18.00;2.60;;;;;;;;;;5008776;28;96443;-77
2022/04/07 22:44:08;;;;;;;14.93;2.05;;;;;;;;;;5012607;28;97360;-78
2022/04/07 22:46:35;;;;;;;18.25;2.97;;;;;;;;;;5009034;28;96748;-76
2022/04/07 22:49:03;;;;;;;17.48;2.80;;;;;;;;;;5009007;28;97478;-78
2022/04/07 22:51:29;;;;;;;17.38;3.00;;;;;;;;;;5009320;28;95448;-75
2022/04/07 22:53:55;;;;;;;18.52;3.17;;;;;;;;;;5009488;28;96769;-76
2022/04/07 22:56:22;;;;;;;17.77;2.45;;;;;;;;;;5008792;28;97411;-75
2022/04/07 22:58:48;;;;;;;13.43;2.25;;;;;;;;;;5009655;28;95851;-77
2022/04/07 23:01:14;;;;;;;15.75;2.60;;;;;;;;;;5008588;28;96526;-76
2022/04/07 23:03:41;;;;;;;9.48;2.33;;;;;;;;;;5009082;28;96252;-75
2022/04/07 23:06:07;;;;;;;10.20;1.80;;;;;;;;;;5012077;28;95467;-78
2022/04/07 23:08:33;;;;;;;15.00;1.80;;;;;;;;;;5008834;28;97912;-77
2022/04/07 23:11:00;;;;;;;9.32;1.75;;;;;;;;;;5008015;28;95308;-76
2022/04/07 23:13:26;;;;;;;14.18;2.20;;;;;;;;;;5008948;28;97164;-76
2022/04/07 23:15:52;;;;;;;13.48;1.73;;;;;;;;;;5007654;28;96573;-77
2022/04/07 23:18:19;;;;;;;13.68;2.13;;;;;;;;;;5007311;28;95255;-77
2022/04/07 23:20:45;;;;;;;13.68;2.00;;;;;;;;;;5008917;28;97062;-76
2022/04/07 23:23:11;;;;;;;19.02;2.13;;;;;;;;;;5007748;28;97476;-77
2022/04/07 23:25:38;;;;;;;12.35;1.75;;;;;;;;;;5011776;28;95394;-75
2022/04/07 23:28:04;;;;;;;16.27;2.10;;;;;;;;;;5008257;28;96945;-75
2022/04/07 23:30:31;;;;;;;13.77;1.88;;;;;;;;;;5008127;28;95846;-76
2022/04/07 23:32:57;;;;;;;14.38;2.53;;;;;;;;;;5008843;28;96728;-76
2022/04/07 23:35:23;;;;;;;12.68;1.85;;;;;;;;;;5007863;28;97772;-76
2022/04/07 23:37:51;;;;;;;17.95;2.30;;;;;;;;;;5008503;28;95663;-75
2022/04/07 23:40:17;;;;;;;17.10;1.98;;;;;;;;;;5007529;28;95970;-75
2022/04/07 23:42:43;;;;;;;13.00;2.10;;;;;;;;;;5008294;28;97336;-75
2022/04/07 23:45:10;;;;;;;13.80;2.13;;;;;;;;;;5007508;28;95682;-75
2022/04/07 23:47:39;;;;;;;18.33;2.53;;;;;;;;;;5010811;28;96813;-74
2022/04/07 23:50:06;;;;;;;17.27;2.00;;;;;;;;;;5007416;28;95820;-76
2022/04/07 23:52:32;;;;;;;9.85;1.80;;;;;;;;;;5008680;28;96869;-75
2022/04/07 23:54:59;;;;;;;9.65;1.80;;;;;;;;;;5010024;28;97339;-75
2022/04/07 23:57:25;;;;;;;7.18;1.85;;;;;;;;;;5011159;28;95915;-75
2022/04/07 23:59:51;;;;;;;9.05;1.88;;;;;;;;;;5011480;28;96947;-76
